TGL6601 MYNN-MYSM
Flight info
| Callsign | TGL6601 |
|---|---|
| Flight time | 0h 50m |
| Altitude | 21000 |
| Route | SEAAN |
| Aircraft | A320/M-SDE3FGHIRWY/LB1 |
Departure
| Time | 2026-05-04 13:17 |
|---|---|
| Airport | Lynden Pindling International Airport (MYNN) |
Arrival
| Time | 2026-05-04 14:07 |
|---|---|
| Airport | San Salvador International Airport (MYSM) |
| Time | Latitude | Longitude | Altitude | Speed | Heading |
|---|---|---|---|---|---|
| 2026-05-04 12:58 | 25.05057 | -77.46844 | 12 ft | 0 kts | 348° |
| 2026-05-04 13:01 | 25.05056 | -77.46844 | 12 ft | 2 kts | 348° |
| 2026-05-04 13:01 | 25.05035 | -77.46838 | 15 ft | 3 kts | 346° |
| 2026-05-04 13:01 | 25.05013 | -77.46833 | 13 ft | 3 kts | 5° |
| 2026-05-04 13:01 | 25.04995 | -77.46841 | 16 ft | 3 kts | 59° |
| 2026-05-04 13:02 | 25.04986 | -77.46864 | 13 ft | 2 kts | 66° |
| 2026-05-04 13:02 | 25.04985 | -77.46866 | 13 ft | 0 kts | 66° |
| 2026-05-04 13:07 | 25.04985 | -77.46861 | 13 ft | 1 kts | 86° |
| 2026-05-04 13:07 | 25.04970 | -77.46843 | 6 ft | 6 kts | 161° |
| 2026-05-04 13:07 | 25.04940 | -77.46876 | 12 ft | 7 kts | 244° |
| 2026-05-04 13:08 | 25.04909 | -77.46932 | 12 ft | 9 kts | 221° |
| 2026-05-04 13:08 | 25.04850 | -77.46926 | 12 ft | 10 kts | 152° |
| 2026-05-04 13:08 | 25.04798 | -77.46875 | 12 ft | 10 kts | 135° |
| 2026-05-04 13:08 | 25.04747 | -77.46818 | 12 ft | 10 kts | 134° |
| 2026-05-04 13:09 | 25.04698 | -77.46764 | 12 ft | 10 kts | 135° |
| 2026-05-04 13:09 | 25.04652 | -77.46713 | 13 ft | 9 kts | 135° |
| 2026-05-04 13:09 | 25.04609 | -77.46668 | 13 ft | 8 kts | 136° |
| 2026-05-04 13:09 | 25.04570 | -77.46625 | 12 ft | 8 kts | 134° |
| 2026-05-04 13:10 | 25.04532 | -77.46581 | 12 ft | 9 kts | 133° |
| 2026-05-04 13:10 | 25.04488 | -77.46531 | 13 ft | 9 kts | 136° |
| 2026-05-04 13:10 | 25.04447 | -77.46487 | 12 ft | 8 kts | 136° |
| 2026-05-04 13:10 | 25.04410 | -77.46448 | 12 ft | 7 kts | 136° |
| 2026-05-04 13:11 | 25.04378 | -77.46412 | 12 ft | 6 kts | 133° |
| 2026-05-04 13:11 | 25.04326 | -77.46351 | 13 ft | 15 kts | 133° |
| 2026-05-04 13:11 | 25.04255 | -77.46272 | 13 ft | 14 kts | 135° |
| 2026-05-04 13:11 | 25.04191 | -77.46200 | 12 ft | 12 kts | 135° |
| 2026-05-04 13:12 | 25.04135 | -77.46137 | 12 ft | 11 kts | 135° |
| 2026-05-04 13:12 | 25.04082 | -77.46081 | 12 ft | 10 kts | 136° |
| 2026-05-04 13:12 | 25.04035 | -77.46031 | 12 ft | 9 kts | 136° |
| 2026-05-04 13:12 | 25.03994 | -77.45986 | 13 ft | 8 kts | 135° |
| 2026-05-04 13:13 | 25.03958 | -77.45947 | 14 ft | 7 kts | 135° |
| 2026-05-04 13:13 | 25.03891 | -77.45875 | 12 ft | 21 kts | 135° |
| 2026-05-04 13:13 | 25.03756 | -77.45722 | 14 ft | 31 kts | 134° |
| 2026-05-04 13:13 | 25.03600 | -77.45552 | 11 ft | 32 kts | 133° |
| 2026-05-04 13:14 | 25.03535 | -77.45521 | 12 ft | 6 kts | 201° |
| 2026-05-04 13:14 | 25.03498 | -77.45541 | 11 ft | 0 kts | 213° |
| 2026-05-04 13:15 | 25.03466 | -77.45576 | 13 ft | 14 kts | 229° |
| 2026-05-04 13:15 | 25.03482 | -77.45679 | 10 ft | 16 kts | 312° |
| 2026-05-04 13:16 | 25.03559 | -77.45772 | 12 ft | 17 kts | 312° |
| 2026-05-04 13:16 | 25.03749 | -77.45985 | 13 ft | 73 kts | 317° |
| 2026-05-04 13:16 | 25.04269 | -77.46568 | 12 ft | 137 kts | 314° |
| 2026-05-04 13:16 | 25.05058 | -77.47434 | 244 ft | 168 kts | 314° |
| 2026-05-04 13:17 | 25.06028 | -77.48201 | 881 ft | 176 kts | 336° |
| 2026-05-04 13:17 | 25.07247 | -77.48400 | 1669 ft | 182 kts | 2° |
| 2026-05-04 13:17 | 25.08498 | -77.47912 | 2261 ft | 211 kts | 31° |
| 2026-05-04 13:17 | 25.09561 | -77.46658 | 2495 ft | 240 kts | 62° |
| 2026-05-04 13:18 | 25.10120 | -77.44787 | 2444 ft | 269 kts | 83° |
| 2026-05-04 13:18 | 25.10043 | -77.42668 | 2582 ft | 287 kts | 109° |
| 2026-05-04 13:18 | 25.09184 | -77.40696 | 3656 ft | 279 kts | 124° |
| 2026-05-04 13:18 | 25.08148 | -77.38891 | 4812 ft | 279 kts | 125° |
| 2026-05-04 13:19 | 25.07098 | -77.37077 | 5703 ft | 284 kts | 125° |
| 2026-05-04 13:19 | 25.06027 | -77.35220 | 6540 ft | 290 kts | 122° |
| 2026-05-04 13:19 | 25.05117 | -77.33200 | 7332 ft | 298 kts | 114° |
| 2026-05-04 13:19 | 25.04395 | -77.31045 | 8165 ft | 303 kts | 109° |
| 2026-05-04 13:20 | 25.03747 | -77.28808 | 9016 ft | 308 kts | 108° |
| 2026-05-04 13:20 | 25.03114 | -77.26539 | 9839 ft | 313 kts | 108° |
| 2026-05-04 13:20 | 25.02447 | -77.24198 | 10341 ft | 330 kts | 109° |
| 2026-05-04 13:20 | 25.01715 | -77.21712 | 10669 ft | 350 kts | 110° |
| 2026-05-04 13:21 | 25.00935 | -77.19138 | 11305 ft | 358 kts | 110° |
| 2026-05-04 13:21 | 25.00120 | -77.16507 | 12016 ft | 364 kts | 110° |
| 2026-05-04 13:21 | 24.99289 | -77.13858 | 12721 ft | 369 kts | 111° |
| 2026-05-04 13:21 | 24.98439 | -77.11166 | 13426 ft | 374 kts | 111° |
| 2026-05-04 13:22 | 24.97577 | -77.08439 | 14086 ft | 379 kts | 111° |
| 2026-05-04 13:22 | 24.96710 | -77.05688 | 14761 ft | 382 kts | 111° |
| 2026-05-04 13:22 | 24.95835 | -77.02909 | 15391 ft | 385 kts | 111° |
| 2026-05-04 13:22 | 24.94953 | -77.00107 | 16013 ft | 389 kts | 111° |
| 2026-05-04 13:23 | 24.94061 | -76.97269 | 16629 ft | 394 kts | 111° |
| 2026-05-04 13:23 | 24.93163 | -76.94410 | 17222 ft | 398 kts | 111° |
| 2026-05-04 13:23 | 24.92303 | -76.91485 | 17811 ft | 404 kts | 105° |
| 2026-05-04 13:23 | 24.91879 | -76.88415 | 18372 ft | 410 kts | 93° |
| 2026-05-04 13:24 | 24.91997 | -76.85269 | 18869 ft | 414 kts | 81° |
| 2026-05-04 13:24 | 24.92667 | -76.82187 | 19403 ft | 415 kts | 69° |
| 2026-05-04 13:24 | 24.93674 | -76.79191 | 19934 ft | 418 kts | 68° |
| 2026-05-04 13:25 | 24.95726 | -76.73130 | 20869 ft | 426 kts | 68° |
| 2026-05-04 13:25 | 24.96755 | -76.70070 | 20978 ft | 424 kts | 68° |
| 2026-05-04 13:25 | 24.97750 | -76.67090 | 21006 ft | 406 kts | 68° |
| 2026-05-04 13:25 | 24.98719 | -76.64178 | 21003 ft | 394 kts | 68° |
| 2026-05-04 13:26 | 24.99648 | -76.61387 | 21004 ft | 391 kts | 68° |
| 2026-05-04 13:26 | 25.00604 | -76.58521 | 21010 ft | 398 kts | 68° |
| 2026-05-04 13:26 | 25.01565 | -76.55648 | 21005 ft | 403 kts | 68° |
| 2026-05-04 13:26 | 25.02538 | -76.52740 | 21022 ft | 404 kts | 68° |
| 2026-05-04 13:27 | 25.03509 | -76.49835 | 21005 ft | 404 kts | 68° |
| 2026-05-04 13:27 | 25.04481 | -76.46920 | 21002 ft | 404 kts | 68° |
| 2026-05-04 13:27 | 25.05450 | -76.44012 | 21005 ft | 405 kts | 68° |
| 2026-05-04 13:27 | 25.06420 | -76.41101 | 21010 ft | 405 kts | 68° |
| 2026-05-04 13:28 | 25.07389 | -76.38189 | 21010 ft | 405 kts | 68° |
| 2026-05-04 13:28 | 25.08357 | -76.35274 | 21010 ft | 405 kts | 68° |
| 2026-05-04 13:28 | 25.09324 | -76.32359 | 21013 ft | 405 kts | 68° |
| 2026-05-04 13:28 | 25.10291 | -76.29441 | 21009 ft | 405 kts | 68° |
| 2026-05-04 13:29 | 25.11258 | -76.26527 | 21017 ft | 405 kts | 68° |
| 2026-05-04 13:29 | 25.12231 | -76.23601 | 21016 ft | 405 kts | 68° |
| 2026-05-04 13:29 | 25.13198 | -76.20688 | 21016 ft | 405 kts | 68° |
| 2026-05-04 13:29 | 25.14165 | -76.17767 | 21015 ft | 405 kts | 68° |
| 2026-05-04 13:30 | 25.15128 | -76.14853 | 21019 ft | 405 kts | 68° |
| 2026-05-04 13:30 | 25.16091 | -76.11928 | 21016 ft | 409 kts | 69° |
| 2026-05-04 13:30 | 25.17054 | -76.08963 | 21009 ft | 407 kts | 69° |
| 2026-05-04 13:30 | 25.18018 | -76.06032 | 21012 ft | 405 kts | 68° |
| 2026-05-04 13:31 | 25.19041 | -76.03059 | 21024 ft | 422 kts | 67° |
| 2026-05-04 13:31 | 25.20082 | -76.00013 | 21043 ft | 423 kts | 71° |
| 2026-05-04 13:31 | 25.20899 | -75.96952 | 21063 ft | 410 kts | 73° |
| 2026-05-04 13:31 | 25.21655 | -75.93935 | 21084 ft | 406 kts | 74° |
| 2026-05-04 13:32 | 25.22388 | -75.90921 | 21114 ft | 406 kts | 74° |
| 2026-05-04 13:32 | 25.23108 | -75.87915 | 21133 ft | 405 kts | 74° |
| 2026-05-04 13:32 | 25.23825 | -75.84907 | 21163 ft | 407 kts | 75° |
| 2026-05-04 13:32 | 25.24474 | -75.81795 | 21195 ft | 424 kts | 77° |
| 2026-05-04 13:33 | 25.25105 | -75.78580 | 21217 ft | 430 kts | 77° |
| 2026-05-04 13:33 | 25.25742 | -75.75356 | 21257 ft | 430 kts | 77° |
| 2026-05-04 13:33 | 25.26299 | -75.72161 | 21271 ft | 414 kts | 80° |
| 2026-05-04 13:33 | 25.26732 | -75.69028 | 21151 ft | 402 kts | 82° |
| 2026-05-04 13:34 | 25.27077 | -75.66040 | 20954 ft | 393 kts | 83° |
| 2026-05-04 13:34 | 25.27397 | -75.63032 | 20617 ft | 388 kts | 83° |
| 2026-05-04 13:34 | 25.27717 | -75.60079 | 20251 ft | 385 kts | 83° |
| 2026-05-04 13:34 | 25.28052 | -75.57153 | 19889 ft | 383 kts | 83° |
| 2026-05-04 13:35 | 25.28399 | -75.54250 | 19538 ft | 380 kts | 82° |
| 2026-05-04 13:35 | 25.29117 | -75.48508 | 18828 ft | 376 kts | 82° |
| 2026-05-04 13:35 | 25.29474 | -75.45646 | 18425 ft | 375 kts | 82° |
| 2026-05-04 13:36 | 25.29827 | -75.42789 | 17969 ft | 375 kts | 82° |
| 2026-05-04 13:36 | 25.30177 | -75.39934 | 17495 ft | 375 kts | 83° |
| 2026-05-04 13:36 | 25.30409 | -75.38044 | 17199 ft | 375 kts | 83° |
| 2026-05-04 13:36 | 25.30758 | -75.35193 | 16745 ft | 374 kts | 83° |
| 2026-05-04 13:37 | 25.31110 | -75.32345 | 16301 ft | 374 kts | 83° |
| 2026-05-04 13:37 | 25.31465 | -75.29496 | 15866 ft | 373 kts | 83° |
| 2026-05-04 13:37 | 25.31814 | -75.26661 | 15433 ft | 373 kts | 83° |
| 2026-05-04 13:37 | 25.32159 | -75.23820 | 15005 ft | 372 kts | 83° |
| 2026-05-04 13:38 | 25.32500 | -75.20987 | 14591 ft | 371 kts | 83° |
| 2026-05-04 13:38 | 25.32838 | -75.18171 | 14178 ft | 370 kts | 83° |
| 2026-05-04 13:38 | 25.33177 | -75.15356 | 13759 ft | 369 kts | 83° |
| 2026-05-04 13:38 | 25.33520 | -75.12551 | 13297 ft | 367 kts | 83° |
| 2026-05-04 13:39 | 25.33858 | -75.09764 | 12841 ft | 365 kts | 83° |
| 2026-05-04 13:39 | 25.34192 | -75.06989 | 12385 ft | 363 kts | 83° |
| 2026-05-04 13:39 | 25.34528 | -75.04194 | 11935 ft | 360 kts | 82° |
| 2026-05-04 13:39 | 25.34857 | -75.01460 | 11499 ft | 358 kts | 82° |
| 2026-05-04 13:40 | 25.35183 | -74.98744 | 11068 ft | 355 kts | 82° |
| 2026-05-04 13:40 | 25.35507 | -74.96050 | 10646 ft | 352 kts | 82° |
| 2026-05-04 13:40 | 25.35829 | -74.93376 | 10226 ft | 349 kts | 82° |
| 2026-05-04 13:40 | 25.36144 | -74.90745 | 9993 ft | 340 kts | 82° |
| 2026-05-04 13:41 | 25.36446 | -74.88213 | 9968 ft | 324 kts | 82° |
| 2026-05-04 13:41 | 25.36736 | -74.85786 | 9823 ft | 313 kts | 82° |
| 2026-05-04 13:41 | 25.37017 | -74.83415 | 9500 ft | 309 kts | 82° |
| 2026-05-04 13:42 | 25.37569 | -74.78739 | 8764 ft | 305 kts | 82° |
| 2026-05-04 13:42 | 25.37842 | -74.76427 | 8388 ft | 302 kts | 82° |
| 2026-05-04 13:42 | 25.38115 | -74.74128 | 8019 ft | 300 kts | 83° |
| 2026-05-04 13:42 | 25.38385 | -74.71849 | 7643 ft | 298 kts | 83° |
| 2026-05-04 13:43 | 25.38653 | -74.69591 | 7277 ft | 295 kts | 83° |
| 2026-05-04 13:43 | 25.38917 | -74.67351 | 6904 ft | 293 kts | 83° |
| 2026-05-04 13:43 | 25.39180 | -74.65121 | 6530 ft | 291 kts | 83° |
| 2026-05-04 13:43 | 25.39441 | -74.62912 | 6142 ft | 288 kts | 83° |
| 2026-05-04 13:44 | 25.39497 | -74.60715 | 5743 ft | 285 kts | 98° |
| 2026-05-04 13:44 | 25.39029 | -74.58607 | 5348 ft | 281 kts | 114° |
| 2026-05-04 13:44 | 25.38092 | -74.56740 | 5021 ft | 275 kts | 129° |
| 2026-05-04 13:44 | 25.36772 | -74.55226 | 4973 ft | 273 kts | 144° |
| 2026-05-04 13:45 | 25.35164 | -74.54131 | 4978 ft | 271 kts | 159° |
| 2026-05-04 13:45 | 25.33365 | -74.53529 | 4979 ft | 269 kts | 173° |
| 2026-05-04 13:45 | 25.31501 | -74.53435 | 4981 ft | 268 kts | 184° |
| 2026-05-04 13:45 | 25.29645 | -74.53503 | 4983 ft | 268 kts | 184° |
| 2026-05-04 13:46 | 25.27755 | -74.53572 | 5615 ft | 272 kts | 184° |
| 2026-05-04 13:46 | 25.25856 | -74.53637 | 6586 ft | 274 kts | 184° |
| 2026-05-04 13:46 | 25.23935 | -74.53704 | 7457 ft | 278 kts | 184° |
| 2026-05-04 13:46 | 25.21986 | -74.53773 | 8318 ft | 283 kts | 185° |
| 2026-05-04 13:47 | 25.19976 | -74.53842 | 9218 ft | 287 kts | 185° |
| 2026-05-04 13:47 | 25.17992 | -74.53908 | 10063 ft | 291 kts | 185° |
| 2026-05-04 13:47 | 25.15926 | -74.53979 | 10843 ft | 296 kts | 185° |
| 2026-05-04 13:47 | 25.13850 | -74.54053 | 11224 ft | 299 kts | 186° |
| 2026-05-04 13:48 | 25.11774 | -74.54127 | 11344 ft | 298 kts | 186° |
| 2026-05-04 13:48 | 25.09701 | -74.54200 | 11383 ft | 298 kts | 186° |
| 2026-05-04 13:48 | 25.07626 | -74.54271 | 11383 ft | 298 kts | 186° |
| 2026-05-04 13:48 | 25.05552 | -74.54340 | 11380 ft | 298 kts | 186° |
| 2026-05-04 13:49 | 25.03479 | -74.54412 | 11381 ft | 298 kts | 186° |
| 2026-05-04 13:49 | 25.01410 | -74.54486 | 11381 ft | 298 kts | 186° |
| 2026-05-04 13:49 | 24.99337 | -74.54558 | 11381 ft | 298 kts | 186° |
| 2026-05-04 13:49 | 24.97267 | -74.54631 | 11380 ft | 298 kts | 186° |
| 2026-05-04 13:50 | 24.95194 | -74.54704 | 11380 ft | 298 kts | 186° |
| 2026-05-04 13:50 | 24.93119 | -74.54778 | 11382 ft | 298 kts | 186° |
| 2026-05-04 13:50 | 24.91051 | -74.54851 | 11383 ft | 298 kts | 186° |
| 2026-05-04 13:50 | 24.88977 | -74.54923 | 11384 ft | 298 kts | 186° |
| 2026-05-04 13:51 | 24.86905 | -74.54993 | 11384 ft | 298 kts | 186° |
| 2026-05-04 13:51 | 24.84834 | -74.55063 | 11383 ft | 298 kts | 186° |
| 2026-05-04 13:51 | 24.82759 | -74.55135 | 11373 ft | 298 kts | 186° |
| 2026-05-04 13:51 | 24.80692 | -74.55207 | 11381 ft | 298 kts | 186° |
| 2026-05-04 13:52 | 24.76540 | -74.55344 | 11383 ft | 298 kts | 186° |
| 2026-05-04 13:52 | 24.74465 | -74.55416 | 11383 ft | 298 kts | 186° |
| 2026-05-04 13:52 | 24.72393 | -74.55490 | 11383 ft | 298 kts | 186° |
| 2026-05-04 13:53 | 24.70316 | -74.55562 | 11388 ft | 298 kts | 186° |
| 2026-05-04 13:53 | 24.68245 | -74.55632 | 11386 ft | 298 kts | 186° |
| 2026-05-04 13:53 | 24.66165 | -74.55703 | 11386 ft | 298 kts | 186° |
| 2026-05-04 13:54 | 24.62018 | -74.55850 | 11386 ft | 298 kts | 186° |
| 2026-05-04 13:54 | 24.59948 | -74.55921 | 11386 ft | 298 kts | 186° |
| 2026-05-04 13:54 | 24.55799 | -74.56063 | 11389 ft | 298 kts | 186° |
| 2026-05-04 13:55 | 24.53725 | -74.56135 | 11387 ft | 298 kts | 186° |
| 2026-05-04 13:55 | 24.49552 | -74.56277 | 11388 ft | 298 kts | 186° |
| 2026-05-04 13:55 | 24.47476 | -74.56348 | 11388 ft | 299 kts | 186° |
| 2026-05-04 13:56 | 24.45407 | -74.56420 | 11235 ft | 296 kts | 186° |
| 2026-05-04 13:56 | 24.43349 | -74.56511 | 10913 ft | 292 kts | 190° |
| 2026-05-04 13:56 | 24.39739 | -74.57876 | 10634 ft | 265 kts | 216° |
| 2026-05-04 13:57 | 24.38195 | -74.58943 | 10399 ft | 260 kts | 216° |
| 2026-05-04 13:57 | 24.36671 | -74.59982 | 10112 ft | 258 kts | 215° |
| 2026-05-04 13:58 | 24.32035 | -74.63150 | 8685 ft | 270 kts | 215° |
| 2026-05-04 13:58 | 24.28831 | -74.65346 | 7539 ft | 265 kts | 214° |
| 2026-05-04 13:58 | 24.27301 | -74.66379 | 6945 ft | 252 kts | 213° |
| 2026-05-04 13:59 | 24.25836 | -74.67357 | 6375 ft | 241 kts | 213° |
| 2026-05-04 13:59 | 24.24430 | -74.68283 | 5777 ft | 231 kts | 212° |
| 2026-05-04 13:59 | 24.21747 | -74.70018 | 4650 ft | 219 kts | 212° |
| 2026-05-04 14:00 | 24.20442 | -74.70847 | 4102 ft | 214 kts | 212° |
| 2026-05-04 14:00 | 24.17978 | -74.72544 | 3039 ft | 205 kts | 215° |
| 2026-05-04 14:00 | 24.16789 | -74.73384 | 2568 ft | 201 kts | 201° |
| 2026-05-04 14:01 | 24.15481 | -74.73357 | 2503 ft | 190 kts | 156° |
| 2026-05-04 14:01 | 24.14337 | -74.72641 | 2505 ft | 189 kts | 150° |
| 2026-05-04 14:01 | 24.12284 | -74.71168 | 2508 ft | 161 kts | 149° |
| 2026-05-04 14:02 | 24.11395 | -74.70523 | 2490 ft | 149 kts | 150° |
| 2026-05-04 14:02 | 24.10537 | -74.69909 | 2500 ft | 146 kts | 150° |
| 2026-05-04 14:02 | 24.09678 | -74.69297 | 2502 ft | 145 kts | 150° |
| 2026-05-04 14:02 | 24.08841 | -74.68702 | 2502 ft | 143 kts | 150° |
| 2026-05-04 14:03 | 24.08020 | -74.68082 | 2508 ft | 144 kts | 138° |
| 2026-05-04 14:03 | 24.07513 | -74.67138 | 2515 ft | 148 kts | 107° |
| 2026-05-04 14:03 | 24.07395 | -74.66006 | 2520 ft | 150 kts | 97° |
| 2026-05-04 14:03 | 24.07308 | -74.64874 | 2528 ft | 149 kts | 98° |
| 2026-05-04 14:04 | 24.07128 | -74.62626 | 2516 ft | 148 kts | 98° |
| 2026-05-04 14:04 | 24.07038 | -74.61501 | 2331 ft | 148 kts | 97° |
| 2026-05-04 14:04 | 24.06973 | -74.60377 | 2121 ft | 146 kts | 98° |
| 2026-05-04 14:05 | 24.06842 | -74.58171 | 1691 ft | 144 kts | 98° |
| 2026-05-04 14:05 | 24.06735 | -74.57080 | 1371 ft | 144 kts | 100° |
| 2026-05-04 14:05 | 24.06633 | -74.55984 | 998 ft | 146 kts | 98° |
| 2026-05-04 14:06 | 24.06533 | -74.54870 | 598 ft | 149 kts | 98° |
| 2026-05-04 14:06 | 24.06424 | -74.53718 | 195 ft | 156 kts | 97° |
| 2026-05-04 14:06 | 24.06331 | -74.52571 | 18 ft | 140 kts | 96° |
| 2026-05-04 14:06 | 24.06279 | -74.51901 | 25 ft | 58 kts | 95° |
| 2026-05-04 14:07 | 24.06249 | -74.51569 | 27 ft | 16 kts | 95° |
| 2026-05-04 14:07 | 24.06239 | -74.51437 | 26 ft | 20 kts | 91° |
| 2026-05-04 14:07 | 24.06246 | -74.51294 | 28 ft | 18 kts | 74° |
| 2026-05-04 14:07 | 24.06240 | -74.51196 | 26 ft | 9 kts | 178° |
| 2026-05-04 14:08 | 24.06226 | -74.51259 | 27 ft | 10 kts | 273° |
| 2026-05-04 14:08 | 24.06231 | -74.51346 | 26 ft | 13 kts | 273° |
| 2026-05-04 14:08 | 24.06241 | -74.51449 | 26 ft | 15 kts | 277° |
| 2026-05-04 14:08 | 24.06251 | -74.51566 | 27 ft | 16 kts | 275° |
| 2026-05-04 14:09 | 24.06272 | -74.51855 | 25 ft | 22 kts | 274° |
| 2026-05-04 14:09 | 24.06286 | -74.52027 | 24 ft | 23 kts | 276° |
| 2026-05-04 14:10 | 24.06315 | -74.52395 | 20 ft | 26 kts | 277° |
| 2026-05-04 14:10 | 24.06335 | -74.52593 | 18 ft | 27 kts | 275° |
| 2026-05-04 14:10 | 24.06344 | -74.52733 | 18 ft | 27 kts | 274° |
| 2026-05-04 14:10 | 24.06380 | -74.52928 | 18 ft | 25 kts | 317° |
| 2026-05-04 14:11 | 24.06540 | -74.52947 | 18 ft | 20 kts | 342° |
| 2026-05-04 14:11 | 24.06623 | -74.53089 | 17 ft | 0 kts | 342° |